Time;durP1;ratioP1;P1;durP2;ratioP2;P2;SDS_P1;SDS_P2;PMS_P1;PMS_P2;Temp;Humidity;BMP_temperature;BMP_pressure;BME280_temperature;BME280_humidity;BME280_pressure;Samples;Min_cycle;Max_cycle;Signal;HPM_P1;HPM_P2
2022/04/21 00:01:29;;;;;;;2.07;1.73;;;23.20;50.90;;;;;;5034318;28;20423;-84
2022/04/21 00:04:03;;;;;;;2.37;1.93;;;23.20;51.00;;;;;;5034801;28;20419;-84
2022/04/21 00:06:31;;;;;;;1.67;1.57;;;23.20;50.90;;;;;;5016614;28;20467;-84
2022/04/21 00:09:03;;;;;;;1.93;1.73;;;23.20;50.90;;;;;;5034853;28;20431;-84
2022/04/21 00:11:29;;;;;;;2.20;1.60;;;23.20;50.90;;;;;;5000138;28;20510;-84
2022/04/21 00:13:55;;;;;;;2.63;1.63;;;23.20;51.00;;;;;;5000053;28;20453;-83
2022/04/21 00:17:13;;;;;;;1.93;1.53;;;23.20;51.00;;;;;;5035666;28;20395;-84
2022/04/21 00:20:01;;;;;;;1.97;1.73;;;23.20;51.00;;;;;;5037685;28;20407;-84
2022/04/21 00:25:14;;;;;;;1.80;1.70;;;23.10;51.00;;;;;;5019310;28;20445;-83
2022/04/21 00:27:44;;;;;;;2.07;1.73;;;23.10;50.90;;;;;;5001898;28;20428;-82
2022/04/21 00:30:12;;;;;;;2.10;1.80;;;23.10;51.00;;;;;;5030771;28;20431;-82
2022/04/21 00:32:41;;;;;;;2.70;1.97;;;23.10;51.00;;;;;;5005631;28;20442;-83
2022/04/21 00:35:11;;;;;;;1.97;1.60;;;23.10;51.00;;;;;;5021871;28;20404;-83
2022/04/21 00:37:58;;;;;;;2.17;1.57;;;23.10;51.00;;;;;;5006403;28;20423;-83
2022/04/21 00:40:38;;;;;;;2.77;1.80;;;23.20;51.00;;;;;;5005757;28;20395;-83
2022/04/21 00:43:06;;;;;;;1.80;1.50;;;23.10;51.00;;;;;;5005824;28;20434;-83
2022/04/21 00:45:33;;;;;;;2.73;1.90;;;23.10;51.00;;;;;;5005631;28;20469;-83
2022/04/21 00:48:05;;;;;;;2.00;1.80;;;23.10;51.00;;;;;;5005693;28;20403;-83
2022/04/21 00:50:36;;;;;;;1.80;1.60;;;23.10;51.00;;;;;;5021493;28;20423;-83
2022/04/21 00:53:03;;;;;;;2.50;2.00;;;23.20;51.10;;;;;;5021652;28;20427;-83
2022/04/21 00:55:30;;;;;;;1.63;1.40;;;23.10;51.00;;;;;;5038710;28;20505;-83
2022/04/21 00:58:07;;;;;;;1.80;1.63;;;23.10;51.00;;;;;;5038788;28;20411;-83
2022/04/21 01:00:36;;;;;;;1.30;1.20;;;23.20;51.00;;;;;;5022419;28;20610;-83
2022/04/21 01:03:05;;;;;;;1.90;1.53;;;23.10;51.00;;;;;;5022043;28;20411;-83
2022/04/21 01:05:36;;;;;;;1.60;1.50;;;23.10;51.00;;;;;;5021818;28;20459;-83
2022/04/21 01:08:08;;;;;;;1.90;1.57;;;23.10;51.00;;;;;;5005546;28;20419;-83
2022/04/21 01:10:39;;;;;;;2.47;1.80;;;23.10;51.00;;;;;;5037953;28;20451;-83
2022/04/21 01:13:08;;;;;;;2.60;1.73;;;23.10;51.00;;;;;;5021641;28;20438;-83
2022/04/21 01:15:38;;;;;;;1.50;1.33;;;23.10;51.00;;;;;;5020891;28;20447;-83
2022/04/21 01:18:09;;;;;;;2.73;1.70;;;23.10;51.00;;;;;;5037911;28;20400;-83
2022/04/21 01:20:37;;;;;;;1.80;1.50;;;23.10;51.00;;;;;;4998468;28;20447;-84
2022/04/21 01:23:22;;;;;;;1.67;1.30;;;23.10;51.00;;;;;;5020075;28;20444;-83
2022/04/21 01:25:52;;;;;;;1.80;1.60;;;23.10;51.00;;;;;;5017635;28;20472;-83
2022/04/21 01:28:22;;;;;;;1.83;1.40;;;23.10;51.00;;;;;;5016246;28;20415;-83
2022/04/21 01:31:02;;;;;;;2.33;1.50;;;23.10;51.00;;;;;;4999563;28;20420;-83
2022/04/21 01:33:55;;;;;;;2.50;1.50;;;23.10;51.60;;;;;;5017184;28;20499;-84
2022/04/21 01:36:30;;;;;;;1.53;1.30;;;23.10;51.00;;;;;;5017735;28;20412;-83
2022/04/21 01:41:50;;;;;;;2.23;1.60;;;23.10;51.10;;;;;;5017021;28;20411;-83
2022/04/21 01:44:21;;;;;;;1.60;1.30;;;23.10;51.10;;;;;;5004270;28;20412;-84
2022/04/21 01:46:48;;;;;;;1.93;1.37;;;23.10;51.10;;;;;;5037182;28;20443;-83
2022/04/21 01:49:21;;;;;;;1.60;1.40;;;23.10;51.10;;;;;;5036530;28;20416;-84
2022/04/21 01:51:46;;;;;;;2.23;1.73;;;23.10;51.10;;;;;;5036417;28;20423;-84
2022/04/21 01:54:14;;;;;;;1.70;1.40;;;23.10;51.10;;;;;;5036693;28;20407;-84
2022/04/21 01:56:43;;;;;;;1.50;1.33;;;23.10;51.10;;;;;;5018900;28;20430;-83
2022/04/21 01:59:15;;;;;;;2.77;1.47;;;23.10;51.10;;;;;;5021213;28;20442;-83
2022/04/21 02:01:43;;;;;;;2.37;1.53;;;23.10;51.10;;;;;;5004183;28;20419;-83
2022/04/21 02:04:15;;;;;;;2.00;1.30;;;23.10;51.10;;;;;;5003294;28;20431;-83
2022/04/21 02:06:42;;;;;;;1.57;1.23;;;23.10;51.10;;;;;;5003332;28;20451;-83
2022/04/21 02:09:10;;;;;;;1.73;1.60;;;23.10;51.10;;;;;;5020351;28;20446;-83
2022/04/21 02:11:36;;;;;;;1.73;1.43;;;23.10;51.10;;;;;;5019606;28;20427;-83
2022/04/21 02:14:06;;;;;;;1.80;1.70;;;23.10;51.10;;;;;;5019531;28;20423;-84
2022/04/21 02:16:33;;;;;;;2.23;1.60;;;23.10;51.10;;;;;;5034366;28;20192;-83
2022/04/21 02:19:02;;;;;;;1.50;1.40;;;23.10;51.10;;;;;;5017132;28;20419;-83
2022/04/21 02:21:28;;;;;;;1.67;1.37;;;23.10;51.10;;;;;;5018320;28;20439;-83
2022/04/21 02:23:54;;;;;;;1.87;1.60;;;23.10;51.10;;;;;;5003291;28;20430;-83
2022/04/21 02:26:22;;;;;;;1.80;1.30;;;23.10;51.10;;;;;;5027038;28;20467;-83
2022/04/21 02:28:57;;;;;;;1.17;1.00;;;23.10;51.10;;;;;;5017020;28;20451;-84
2022/04/21 02:31:26;;;;;;;1.33;1.20;;;23.10;51.10;;;;;;5015863;28;20443;-84
2022/04/21 02:33:53;;;;;;;2.17;1.47;;;23.10;51.10;;;;;;5003849;28;20427;-84
2022/04/21 02:36:19;;;;;;;1.70;1.27;;;23.10;51.10;;;;;;5019225;28;20454;-84
2022/04/21 02:38:45;;;;;;;1.50;1.20;;;23.10;51.10;;;;;;5002570;28;20430;-83
2022/04/21 02:41:12;;;;;;;1.53;1.43;;;23.10;51.10;;;;;;5034309;28;20431;-84
2022/04/21 02:43:39;;;;;;;1.97;1.53;;;23.10;51.10;;;;;;5034204;28;20420;-83
2022/04/21 02:46:06;;;;;;;1.67;1.43;;;23.10;51.10;;;;;;5035869;28;20474;-83
2022/04/21 02:48:35;;;;;;;3.07;1.40;;;23.10;51.10;;;;;;5027898;28;20419;-83
2022/04/21 02:51:05;;;;;;;1.47;1.20;;;23.10;51.10;;;;;;5032557;28;20400;-84
2022/04/21 02:59:12;;;;;;;1.30;1.20;;;23.10;51.10;;;;;;5037214;28;20414;-83
2022/04/21 03:01:45;;;;;;;1.57;1.10;;;23.10;51.10;;;;;;5019251;28;20587;-83
2022/04/21 03:04:15;;;;;;;1.80;1.60;;;23.10;51.10;;;;;;5035284;28;20411;-83
2022/04/21 03:06:42;;;;;;;1.63;1.20;;;23.10;51.10;;;;;;5036188;28;20463;-83
2022/04/21 03:09:10;;;;;;;1.60;1.40;;;23.10;51.10;;;;;;5019271;28;20426;-84
2022/04/21 03:11:38;;;;;;;2.37;1.20;;;23.10;51.10;;;;;;5036412;28;20410;-83
2022/04/21 03:14:13;;;;;;;1.83;1.40;;;23.10;51.10;;;;;;5019499;28;20415;-84
2022/04/21 03:16:41;;;;;;;1.30;1.20;;;23.10;51.10;;;;;;5025836;28;20444;-84
2022/04/21 03:19:09;;;;;;;2.10;1.60;;;23.10;51.10;;;;;;5018240;28;20852;-83
2022/04/21 03:24:20;;;;;;;1.77;1.43;;;23.10;51.10;;;;;;5035772;28;20877;-84
2022/04/21 03:26:48;;;;;;;2.40;1.40;;;23.10;51.10;;;;;;5035199;28;20458;-83
2022/04/21 03:29:15;;;;;;;1.67;1.57;;;23.00;51.10;;;;;;5002474;28;20419;-83
2022/04/21 03:31:45;;;;;;;1.33;1.20;;;23.10;51.10;;;;;;5017783;28;20494;-84
2022/04/21 03:34:16;;;;;;;1.67;1.47;;;23.10;51.20;;;;;;5013145;28;20447;-84
2022/04/21 03:36:47;;;;;;;2.10;1.20;;;23.10;51.10;;;;;;5018014;28;20447;-84
2022/04/21 03:39:16;;;;;;;1.83;1.50;;;23.00;51.10;;;;;;5018167;28;20415;-83
2022/04/21 03:41:42;;;;;;;1.80;1.50;;;23.10;51.20;;;;;;5017965;28;20422;-84
2022/04/21 03:44:09;;;;;;;1.63;1.40;;;23.10;51.20;;;;;;5018509;28;20423;-84
2022/04/21 03:46:35;;;;;;;1.40;1.23;;;23.10;51.20;;;;;;5035437;28;20455;-84
2022/04/21 03:49:01;;;;;;;1.40;1.20;;;23.00;51.10;;;;;;5018556;28;20428;-83
2022/04/21 03:51:27;;;;;;;2.30;1.57;;;23.10;51.20;;;;;;5018343;28;20453;-84
2022/04/21 03:53:54;;;;;;;1.77;1.30;;;23.00;51.10;;;;;;5020873;28;20172;-83
2022/04/21 03:56:21;;;;;;;1.87;1.30;;;23.00;51.10;;;;;;5039896;28;20442;-84
2022/04/21 03:58:47;;;;;;;2.20;1.40;;;23.00;51.10;;;;;;5039834;28;20415;-84
2022/04/21 04:01:12;;;;;;;2.03;1.30;;;23.00;51.10;;;;;;5039547;28;20435;-84
2022/04/21 04:03:38;;;;;;;1.30;1.20;;;23.00;51.10;;;;;;5022372;28;20441;-83
2022/04/21 04:10:51;;;;;;;1.37;1.20;;;23.00;51.10;;;;;;5022030;28;20204;-83
2022/04/21 04:11:35;;;;;;;1.67;1.30;;;23.00;51.20;;;;;;5019446;28;20419;-83
2022/04/21 04:14:05;;;;;;;1.80;1.30;;;23.00;51.20;;;;;;5038427;28;20416;-84
2022/04/21 04:16:33;;;;;;;1.70;1.60;;;23.00;51.20;;;;;;5021969;28;20195;-83
2022/04/21 04:19:00;;;;;;;1.50;1.03;;;23.00;51.20;;;;;;5039711;28;20431;-83
2022/04/21 04:21:26;;;;;;;1.60;1.30;;;23.00;51.20;;;;;;5039010;28;20403;-83
2022/04/21 04:23:52;;;;;;;2.33;1.40;;;23.00;51.20;;;;;;5039076;28;20446;-83
2022/04/21 04:26:17;;;;;;;1.57;1.17;;;23.00;51.20;;;;;;5038738;28;20239;-83
2022/04/21 04:28:43;;;;;;;1.17;1.07;;;23.00;51.20;;;;;;5022054;28;20180;-84
2022/04/21 04:31:09;;;;;;;1.93;1.20;;;23.00;51.20;;;;;;5021998;28;20243;-84
2022/04/21 04:33:34;;;;;;;1.53;1.20;;;23.00;51.20;;;;;;5038910;28;20168;-84
2022/04/21 04:36:00;;;;;;;1.43;1.20;;;23.00;51.20;;;;;;5021156;28;20571;-84
2022/04/21 04:38:26;;;;;;;1.30;1.20;;;23.00;51.20;;;;;;5038948;28;20172;-84
2022/04/21 04:40:52;;;;;;;2.03;1.70;;;23.00;51.20;;;;;;5021759;28;20180;-84
2022/04/21 04:43:18;;;;;;;1.63;1.30;;;23.00;51.20;;;;;;5038425;28;20252;-84
2022/04/21 04:48:28;;;;;;;1.40;1.30;;;23.00;51.70;;;;;;5038794;28;20163;-83
2022/04/21 04:50:54;;;;;;;1.67;1.30;;;23.00;51.10;;;;;;5038520;28;20387;-83
2022/04/21 04:53:20;;;;;;;2.73;1.60;;;23.00;51.20;;;;;;5021687;28;20430;-83
2022/04/21 04:55:46;;;;;;;1.37;1.27;;;23.10;51.20;;;;;;5021960;28;20184;-83
2022/04/21 04:58:13;;;;;;;2.03;1.70;;;23.10;51.20;;;;;;5021313;28;20185;-83
2022/04/21 05:00:38;;;;;;;1.30;1.20;;;23.10;51.20;;;;;;5021380;28;20423;-83
2022/04/21 05:03:04;;;;;;;1.50;1.10;;;23.10;51.20;;;;;;5021091;28;20415;-84
2022/04/21 05:05:30;;;;;;;1.60;1.27;;;23.10;51.20;;;;;;5020491;28;20267;-82
2022/04/21 05:07:55;;;;;;;1.53;1.27;;;23.10;51.20;;;;;;5020806;28;20608;-82
2022/04/21 05:10:23;;;;;;;1.47;1.30;;;23.10;51.20;;;;;;5037834;28;20168;-83
2022/04/21 05:12:48;;;;;;;1.60;1.37;;;23.10;51.20;;;;;;5021294;28;20198;-83
2022/04/21 05:15:14;;;;;;;3.10;1.27;;;23.10;51.20;;;;;;5037112;28;20438;-83
2022/04/21 05:17:40;;;;;;;2.40;1.40;;;23.10;51.20;;;;;;5038097;28;20173;-84
2022/04/21 05:20:07;;;;;;;2.53;1.33;;;23.10;51.20;;;;;;5021093;28;20165;-83
2022/04/21 05:22:37;;;;;;;1.37;1.13;;;23.10;51.20;;;;;;5037804;28;20411;-83
2022/04/21 05:25:08;;;;;;;2.80;1.23;;;23.10;51.20;;;;;;5035434;28;20821;-82
2022/04/21 05:27:35;;;;;;;2.67;1.40;;;23.10;51.20;;;;;;5036844;28;20403;-82
2022/04/21 05:32:48;;;;;;;3.40;1.73;;;23.10;51.20;;;;;;5028739;28;20439;-84
2022/04/21 05:35:16;;;;;;;2.33;1.43;;;23.10;51.20;;;;;;5017442;28;20420;-83
2022/04/21 05:37:42;;;;;;;3.17;1.60;;;23.10;51.30;;;;;;5002635;28;20432;-85
2022/04/21 05:40:13;;;;;;;4.73;1.70;;;23.10;51.30;;;;;;5036470;28;20423;-83
2022/04/21 05:42:45;;;;;;;5.30;2.10;;;23.10;51.30;;;;;;5036754;28;20419;-83
2022/04/21 05:45:13;;;;;;;5.37;1.93;;;23.10;51.40;;;;;;5003290;28;20463;-82
2022/04/21 05:47:43;;;;;;;6.20;2.47;;;23.20;51.40;;;;;;5019936;28;20446;-82
2022/04/21 05:50:10;;;;;;;2.60;1.73;;;23.20;51.40;;;;;;5019778;28;20443;-82
2022/04/21 05:52:43;;;;;;;3.33;1.83;;;23.20;51.40;;;;;;5006910;28;20436;-83
2022/04/21 05:55:11;;;;;;;3.13;2.40;;;23.20;51.30;;;;;;4984724;28;20482;-82
2022/04/21 05:57:40;;;;;;;3.47;2.13;;;23.20;51.30;;;;;;5029366;28;20426;-82
2022/04/21 06:00:08;;;;;;;3.23;2.13;;;23.20;51.30;;;;;;5020895;28;20411;-82
2022/04/21 06:02:35;;;;;;;4.27;2.10;;;23.20;51.30;;;;;;5016750;28;20428;-82
2022/04/21 06:05:00;;;;;;;2.30;1.77;;;23.20;51.30;;;;;;5017509;28;20469;-84
2022/04/21 06:07:26;;;;;;;3.13;2.03;;;23.20;51.30;;;;;;5009711;28;20460;-84
2022/04/21 06:09:52;;;;;;;3.33;2.07;;;23.20;51.20;;;;;;5017289;28;20184;-84
2022/04/21 06:12:18;;;;;;;3.53;2.10;;;23.20;51.20;;;;;;5025439;28;20169;-84
2022/04/21 06:14:45;;;;;;;4.53;2.20;;;23.20;51.20;;;;;;5027726;28;20462;-84
2022/04/21 06:17:10;;;;;;;4.90;2.80;;;23.20;51.20;;;;;;5034015;28;20188;-84
2022/04/21 06:19:36;;;;;;;4.57;1.83;;;23.20;51.20;;;;;;5018124;28;20439;-83
2022/04/21 06:22:02;;;;;;;4.53;2.67;;;23.20;51.20;;;;;;5035189;28;20208;-84
2022/04/21 06:24:29;;;;;;;4.63;2.40;;;23.20;51.30;;;;;;5034659;28;20187;-84
2022/04/21 06:26:55;;;;;;;2.83;2.30;;;23.20;51.20;;;;;;5026717;28;20976;-85
2022/04/21 06:29:21;;;;;;;4.13;2.70;;;23.20;51.20;;;;;;5034255;28;20427;-84
2022/04/21 06:31:46;;;;;;;3.97;2.57;;;23.20;51.20;;;;;;5034829;28;20199;-84
2022/04/21 06:34:12;;;;;;;3.90;2.70;;;23.20;51.20;;;;;;5034117;28;20176;-85
2022/04/21 06:36:38;;;;;;;8.07;2.77;;;23.20;51.20;;;;;;5017407;28;20234;-84
2022/04/21 06:39:03;;;;;;;5.33;3.10;;;23.20;51.20;;;;;;5035752;28;20215;-85
2022/04/21 06:41:29;;;;;;;5.67;2.80;;;23.20;51.20;;;;;;5034455;28;20195;-84
2022/04/21 06:49:25;;;;;;;4.40;2.93;;;23.20;51.20;;;;;;5034547;28;20422;-84
2022/04/21 06:51:51;;;;;;;3.83;2.50;;;23.20;51.20;;;;;;5001175;28;20431;-84
2022/04/21 06:54:18;;;;;;;5.30;2.70;;;23.20;51.20;;;;;;5017207;28;20424;-84
2022/04/21 06:56:48;;;;;;;3.60;2.40;;;23.20;51.20;;;;;;5013986;28;20504;-84
2022/04/21 06:59:15;;;;;;;7.93;2.67;;;23.20;51.20;;;;;;5006659;28;20179;-84
2022/04/21 07:01:41;;;;;;;5.30;2.67;;;23.20;51.20;;;;;;5016374;28;20451;-85
2022/04/21 07:04:07;;;;;;;4.20;2.43;;;23.20;51.20;;;;;;5016999;28;20501;-84
2022/04/21 07:06:35;;;;;;;5.87;3.57;;;23.20;51.20;;;;;;5016695;28;20470;-83
2022/04/21 07:09:01;;;;;;;6.57;2.60;;;23.20;51.20;;;;;;5017068;28;20423;-84
2022/04/21 07:11:27;;;;;;;3.60;1.90;;;23.20;51.20;;;;;;5017251;28;20960;-84
2022/04/21 07:13:53;;;;;;;4.40;2.93;;;23.20;51.20;;;;;;5001423;28;20187;-83
2022/04/21 07:16:19;;;;;;;4.43;2.43;;;23.20;51.20;;;;;;4992553;28;20455;-84
2022/04/21 07:18:46;;;;;;;3.07;2.37;;;23.20;51.20;;;;;;4997599;28;20427;-83
2022/04/21 07:21:12;;;;;;;4.10;2.63;;;23.20;51.20;;;;;;5021757;28;20428;-83
2022/04/21 07:27:02;;;;;;;3.73;2.30;;;23.30;51.30;;;;;;5014159;28;20208;-83
2022/04/21 07:29:33;;;;;;;6.63;2.07;;;23.20;51.20;;;;;;5013105;28;20425;-83
2022/04/21 07:31:59;;;;;;;4.70;2.50;;;23.20;51.20;;;;;;5002820;28;20450;-83
2022/04/21 07:34:26;;;;;;;3.60;2.13;;;23.20;51.20;;;;;;5034552;28;20499;-84
2022/04/21 07:36:52;;;;;;;4.83;2.70;;;23.20;51.20;;;;;;5001150;28;20446;-83
2022/04/21 07:39:19;;;;;;;5.23;3.23;;;23.30;51.30;;;;;;5017317;28;20435;-83
2022/04/21 07:41:46;;;;;;;4.60;2.67;;;23.30;51.30;;;;;;5001039;28;20184;-84
2022/04/21 07:44:13;;;;;;;3.73;2.57;;;23.30;51.30;;;;;;5034798;28;20474;-84
2022/04/21 07:46:39;;;;;;;3.90;2.27;;;23.30;51.30;;;;;;5016798;28;20482;-84
2022/04/21 07:51:49;;;;;;;4.20;2.20;;;23.30;51.20;;;;;;5013656;28;20427;-83
2022/04/21 07:54:17;;;;;;;5.87;2.80;;;23.30;51.20;;;;;;5032268;28;20407;-83
2022/04/21 07:56:44;;;;;;;6.07;2.73;;;23.30;51.20;;;;;;5017287;28;20416;-83
2022/04/21 07:59:10;;;;;;;3.73;2.13;;;23.30;51.30;;;;;;5026031;28;20403;-82
2022/04/21 08:01:36;;;;;;;7.37;2.73;;;23.30;51.20;;;;;;5016578;28;20458;-84
2022/04/21 08:04:04;;;;;;;3.20;2.00;;;23.30;51.20;;;;;;5033287;28;20175;-83
2022/04/21 08:06:31;;;;;;;3.97;2.50;;;23.30;51.20;;;;;;5016864;28;20228;-82
2022/04/21 08:08:59;;;;;;;4.10;2.27;;;23.30;51.20;;;;;;5032541;28;20423;-83
2022/04/21 08:11:25;;;;;;;4.50;2.73;;;23.30;51.20;;;;;;5012059;28;20491;-85
2022/04/21 08:13:51;;;;;;;3.80;2.60;;;23.30;51.20;;;;;;5013756;28;20423;-84
2022/04/21 08:16:18;;;;;;;2.70;2.10;;;23.30;51.20;;;;;;5029578;28;20200;-84
2022/04/21 08:18:50;;;;;;;4.17;2.90;;;23.30;51.20;;;;;;5012962;28;20418;-85
2022/04/21 08:21:18;;;;;;;4.30;2.40;;;23.30;51.20;;;;;;5013142;28;20411;-85
2022/04/21 08:23:46;;;;;;;3.03;2.20;;;23.30;51.20;;;;;;5030540;28;20414;-85
2022/04/21 08:34:25;;;;;;;2.90;2.50;;;23.30;51.20;;;;;;5030579;28;20465;-86
2022/04/21 08:36:50;;;;;;;4.00;2.37;;;23.30;51.20;;;;;;5012636;28;20947;-87
2022/04/21 08:39:17;;;;;;;5.93;2.17;;;23.30;51.20;;;;;;5013928;28;20434;-86
2022/04/21 08:41:51;;;;;;;4.40;2.60;;;23.30;51.20;;;;;;5017330;28;20271;-85
2022/04/21 08:44:23;;;;;;;3.80;2.23;;;23.30;51.20;;;;;;5020015;28;20429;-84
2022/04/21 08:46:51;;;;;;;4.17;2.20;;;23.30;51.20;;;;;;5036060;28;20450;-85
2022/04/21 08:49:21;;;;;;;4.13;2.33;;;23.30;51.20;;;;;;5037170;28;20422;-85
2022/04/21 08:51:48;;;;;;;5.40;2.20;;;23.30;51.20;;;;;;5017265;28;20424;-83
2022/04/21 08:54:16;;;;;;;3.07;2.47;;;23.30;51.20;;;;;;5007475;28;20426;-83
2022/04/21 08:56:41;;;;;;;4.20;2.40;;;23.30;51.20;;;;;;5020558;28;20419;-84
2022/04/21 08:59:09;;;;;;;2.47;1.83;;;23.30;51.20;;;;;;5036478;28;20430;-83
2022/04/21 09:01:35;;;;;;;4.73;2.40;;;23.30;51.20;;;;;;5019883;28;20427;-83
2022/04/21 09:04:01;;;;;;;4.50;2.40;;;23.30;51.20;;;;;;5017863;28;20426;-83
2022/04/21 09:06:29;;;;;;;4.77;2.27;;;23.30;51.20;;;;;;5017882;28;20212;-82
2022/04/21 09:09:16;;;;;;;5.43;2.70;;;23.30;51.20;;;;;;5004784;28;20435;-84
2022/04/21 09:11:45;;;;;;;3.27;2.07;;;23.30;51.20;;;;;;5009230;28;20451;-83
2022/04/21 09:14:20;;;;;;;5.63;2.43;;;23.30;51.20;;;;;;5035101;28;20414;-83
2022/04/21 09:16:47;;;;;;;4.13;2.10;;;23.30;51.20;;;;;;5026187;28;20422;-83
2022/04/21 09:19:14;;;;;;;4.07;2.20;;;23.30;51.20;;;;;;5020467;28;20414;-83
2022/04/21 09:21:41;;;;;;;3.60;2.57;;;23.30;51.20;;;;;;5035014;28;20944;-84
2022/04/21 09:24:25;;;;;;;3.00;2.13;;;23.30;51.20;;;;;;5017847;28;20932;-83
2022/04/21 09:26:53;;;;;;;3.87;2.20;;;23.40;51.20;;;;;;5017950;28;20519;-83
2022/04/21 09:29:33;;;;;;;3.70;1.93;;;23.30;51.20;;;;;;5036314;28;20471;-83
2022/04/21 09:32:02;;;;;;;3.47;2.27;;;23.30;51.10;;;;;;5019130;28;20475;-83
2022/04/21 09:34:29;;;;;;;3.10;2.40;;;23.30;51.10;;;;;;5003335;28;20435;-82
2022/04/21 09:37:00;;;;;;;3.83;2.07;;;23.30;51.10;;;;;;5036178;28;20423;-84
2022/04/21 09:39:27;;;;;;;4.73;2.20;;;23.30;51.10;;;;;;5018765;28;20415;-84
2022/04/21 09:41:54;;;;;;;3.30;2.00;;;23.30;51.10;;;;;;5036222;28;20419;-84
2022/04/21 09:47:17;;;;;;;3.10;2.10;;;23.30;51.10;;;;;;5021930;28;20399;-84
2022/04/21 09:49:43;;;;;;;2.50;1.80;;;23.40;51.20;;;;;;5017306;28;20411;-85
2022/04/21 09:52:12;;;;;;;4.53;2.43;;;23.40;51.20;;;;;;5033592;28;20411;-84
2022/04/21 09:54:41;;;;;;;5.83;2.47;;;23.30;51.10;;;;;;5035242;28;20248;-84
2022/04/21 09:57:35;;;;;;;2.30;1.83;;;23.40;51.20;;;;;;5020441;28;20384;-85
2022/04/21 10:00:02;;;;;;;4.17;2.17;;;23.30;51.10;;;;;;5033055;28;20403;-84
2022/04/21 10:02:35;;;;;;;3.17;2.87;;;23.30;51.10;;;;;;5034863;28;20419;-84
2022/04/21 10:05:02;;;;;;;3.93;1.97;;;23.30;51.10;;;;;;5027378;28;20389;-83
2022/04/21 10:07:28;;;;;;;2.80;2.10;;;23.40;51.20;;;;;;5015427;28;20404;-83
2022/04/21 10:09:56;;;;;;;2.90;2.20;;;23.40;51.20;;;;;;5015814;28;20435;-84
2022/04/21 10:12:22;;;;;;;2.90;2.13;;;23.40;51.20;;;;;;5000958;28;20427;-84
2022/04/21 10:14:49;;;;;;;3.40;2.00;;;23.40;51.20;;;;;;5017815;28;20439;-84
2022/04/21 10:17:15;;;;;;;2.50;2.13;;;23.30;51.10;;;;;;5034158;28;20412;-84
2022/04/21 10:19:41;;;;;;;2.87;1.60;;;23.40;51.20;;;;;;5001528;28;20439;-84
2022/04/21 10:22:13;;;;;;;2.90;1.93;;;23.40;51.20;;;;;;5017884;28;20418;-84
2022/04/21 10:24:40;;;;;;;3.57;2.20;;;23.30;51.10;;;;;;5018484;28;20549;-84
2022/04/21 10:27:35;;;;;;;2.97;2.03;;;23.40;51.20;;;;;;5033988;28;20534;-83
2022/04/21 10:30:02;;;;;;;3.07;2.10;;;23.40;51.20;;;;;;5027668;28;20439;-84
2022/04/21 10:32:50;;;;;;;3.07;1.77;;;23.40;51.20;;;;;;4997682;28;20584;-83
2022/04/21 10:35:27;;;;;;;2.50;1.90;;;23.40;51.20;;;;;;5015039;28;20480;-83
2022/04/21 10:38:19;;;;;;;2.93;2.07;;;23.40;51.20;;;;;;5034623;28;20437;-83
2022/04/21 10:41:21;;;;;;;4.07;2.00;;;23.40;51.20;;;;;;5017018;28;20418;-83
2022/04/21 10:43:50;;;;;;;2.50;2.30;;;23.30;51.10;;;;;;4993944;28;20432;-83
2022/04/21 10:46:29;;;;;;;2.47;2.00;;;23.30;51.00;;;;;;4985790;28;20984;-84
2022/04/21 10:48:55;;;;;;;2.53;1.70;;;23.30;51.00;;;;;;4974547;28;20446;-83
2022/04/21 10:57:30;;;;;;;2.17;1.93;;;23.30;51.00;;;;;;4993974;28;20528;-83
2022/04/21 11:00:29;;;;;;;2.33;2.10;;;23.30;51.00;;;;;;4976694;28;20413;-85
2022/04/21 11:03:02;;;;;;;2.37;2.07;;;23.30;51.00;;;;;;4919358;29;20431;-84
2022/04/21 11:05:33;;;;;;;4.63;2.37;;;23.30;51.00;;;;;;4935834;29;20466;-83
2022/04/21 11:08:13;;;;;;;2.03;1.83;;;23.30;51.00;;;;;;4935520;29;20439;-84
2022/04/21 11:10:38;;;;;;;2.50;1.87;;;23.30;51.00;;;;;;4931819;29;20448;-84
2022/04/21 11:13:06;;;;;;;3.77;2.00;;;23.30;50.90;;;;;;4915841;29;20417;-85
2022/04/21 11:15:50;;;;;;;2.10;1.50;;;23.30;51.00;;;;;;4915962;29;20196;-84
2022/04/21 11:18:21;;;;;;;2.50;2.20;;;23.30;50.90;;;;;;4914994;29;20464;-84
2022/04/21 11:20:48;;;;;;;3.20;2.77;;;23.30;50.90;;;;;;4934023;29;20415;-85
2022/04/21 11:23:29;;;;;;;3.00;1.80;;;23.30;50.90;;;;;;4933233;29;20426;-85
2022/04/21 11:26:08;;;;;;;2.37;1.90;;;23.30;51.00;;;;;;4932422;29;20554;-85
2022/04/21 11:28:35;;;;;;;2.03;1.83;;;23.30;51.00;;;;;;4934737;29;20415;-84
2022/04/21 11:31:04;;;;;;;2.23;2.03;;;23.30;51.00;;;;;;4934087;29;20420;-83
2022/04/21 11:33:33;;;;;;;3.17;2.10;;;23.30;51.00;;;;;;4951407;29;20430;-84
2022/04/21 11:36:35;;;;;;;2.30;2.10;;;23.30;51.00;;;;;;4971915;29;20458;-85
2022/04/21 11:39:06;;;;;;;4.80;2.30;;;23.30;51.00;;;;;;4972302;28;20441;-84
2022/04/21 11:41:32;;;;;;;2.30;1.90;;;23.30;51.00;;;;;;5032499;28;20388;-84
2022/04/21 11:43:58;;;;;;;5.67;2.00;;;23.30;51.00;;;;;;5010687;28;20439;-84
2022/04/21 11:46:24;;;;;;;3.37;2.50;;;23.30;51.00;;;;;;5002288;28;20446;-84
2022/04/21 11:49:00;;;;;;;2.83;2.47;;;23.30;51.00;;;;;;5012445;28;20423;-84
2022/04/21 11:51:27;;;;;;;4.17;2.10;;;23.30;50.90;;;;;;5031277;28;20148;-83
2022/04/21 11:53:53;;;;;;;3.57;2.23;;;23.30;51.00;;;;;;5014927;28;20416;-84
2022/04/21 11:56:21;;;;;;;2.90;2.30;;;23.30;50.90;;;;;;4997590;28;20450;-85
2022/04/21 11:58:47;;;;;;;2.33;2.00;;;23.30;50.80;;;;;;5032184;28;20438;-84
2022/04/21 12:07:17;;;;;;;1.80;1.70;;;23.30;50.80;;;;;;5032668;28;20461;-85
2022/04/21 12:09:46;;;;;;;2.70;1.80;;;23.30;50.80;;;;;;5032255;28;20415;-85
2022/04/21 12:12:15;;;;;;;2.30;2.07;;;23.30;50.80;;;;;;4999202;28;20420;-85
2022/04/21 12:14:42;;;;;;;4.40;1.90;;;23.30;50.80;;;;;;4999727;28;20442;-85
2022/04/21 12:17:09;;;;;;;2.47;2.00;;;23.30;50.80;;;;;;5019171;28;20433;-84
2022/04/21 12:20:00;;;;;;;2.53;1.93;;;23.30;50.80;;;;;;5036400;28;20411;-84
2022/04/21 12:22:34;;;;;;;2.40;1.53;;;23.30;50.80;;;;;;4957167;29;20519;-84
2022/04/21 12:25:02;;;;;;;3.00;1.93;;;23.30;50.80;;;;;;4956270;29;20431;-84
2022/04/21 12:27:34;;;;;;;2.53;1.93;;;23.30;50.70;;;;;;4937361;29;20487;-84
2022/04/21 12:30:07;;;;;;;2.10;1.60;;;23.30;50.70;;;;;;4936464;29;20420;-84
2022/04/21 12:32:35;;;;;;;1.90;1.70;;;23.30;50.70;;;;;;4936478;29;20404;-84
2022/04/21 12:35:03;;;;;;;1.63;1.53;;;23.30;50.70;;;;;;4935966;29;20497;-84
2022/04/21 12:37:31;;;;;;;4.53;1.90;;;23.30;50.70;;;;;;4919834;29;20589;-84
2022/04/21 12:39:58;;;;;;;2.60;1.87;;;23.30;50.70;;;;;;4934904;29;20423;-85
2022/04/21 12:42:25;;;;;;;2.40;2.00;;;23.30;50.70;;;;;;4936416;29;20420;-84
2022/04/21 12:44:53;;;;;;;2.23;1.80;;;23.30;50.70;;;;;;4968052;29;20841;-84
2022/04/21 12:47:20;;;;;;;1.67;1.43;;;23.30;50.70;;;;;;4960563;29;20427;-83
2022/04/21 12:49:48;;;;;;;2.03;1.70;;;23.30;50.70;;;;;;4939903;29;20458;-83
2022/04/21 12:52:26;;;;;;;1.97;1.70;;;23.30;50.80;;;;;;4938666;29;20454;-84
2022/04/21 12:54:51;;;;;;;1.80;1.60;;;23.30;50.70;;;;;;4956359;29;20386;-83
2022/04/21 12:57:17;;;;;;;3.20;1.90;;;23.30;50.70;;;;;;4956342;29;20434;-84
2022/04/21 12:59:44;;;;;;;2.67;2.00;;;23.30;50.70;;;;;;5006456;28;20268;-84
2022/04/21 13:02:10;;;;;;;1.63;1.53;;;23.30;50.70;;;;;;5035786;28;20176;-85
2022/04/21 13:04:37;;;;;;;2.57;1.80;;;23.30;50.70;;;;;;5034834;28;20411;-83
2022/04/21 13:07:03;;;;;;;2.20;1.70;;;23.30;50.70;;;;;;5017562;28;20490;-83
2022/04/21 13:09:29;;;;;;;5.73;2.20;;;23.30;50.70;;;;;;5018018;28;20418;-84
2022/04/21 13:11:55;;;;;;;3.13;1.60;;;23.30;50.70;;;;;;5017507;28;20450;-84
2022/04/21 13:14:22;;;;;;;1.90;1.70;;;23.30;50.70;;;;;;5017853;28;20419;-84
2022/04/21 13:17:03;;;;;;;3.63;1.50;;;23.30;50.70;;;;;;5035232;28;20160;-83
2022/04/21 13:19:29;;;;;;;1.80;1.60;;;23.30;50.70;;;;;;5017106;28;20416;-84
2022/04/21 13:21:57;;;;;;;3.00;1.73;;;23.30;50.70;;;;;;5018052;28;20473;-84
2022/04/21 13:24:32;;;;;;;2.00;1.47;;;23.30;50.80;;;;;;5017565;28;20177;-83
2022/04/21 13:27:16;;;;;;;2.73;2.53;;;23.30;50.80;;;;;;5033641;28;20458;-83
2022/04/21 13:29:53;;;;;;;3.67;1.60;;;23.30;50.80;;;;;;5017298;28;20446;-84
2022/04/21 13:35:07;;;;;;;2.00;1.80;;;23.30;51.00;;;;;;5032617;28;20419;-82
2022/04/21 13:37:33;;;;;;;1.40;1.20;;;23.30;50.80;;;;;;5018016;28;20423;-84
2022/04/21 13:39:59;;;;;;;2.10;1.60;;;23.30;50.80;;;;;;5035093;28;20446;-83
2022/04/21 13:42:25;;;;;;;3.37;1.60;;;23.30;50.80;;;;;;5018167;28;20236;-83
2022/04/21 13:44:54;;;;;;;2.40;1.90;;;23.30;50.80;;;;;;5034946;28;20458;-84
2022/04/21 13:47:24;;;;;;;1.90;1.70;;;23.30;50.80;;;;;;5017931;28;20426;-84
2022/04/21 13:49:49;;;;;;;1.83;1.70;;;23.30;50.80;;;;;;5017346;28;20404;-85
2022/04/21 13:52:17;;;;;;;1.50;1.40;;;23.30;50.80;;;;;;5017563;28;20453;-83
2022/04/21 13:54:43;;;;;;;2.00;1.80;;;23.30;50.80;;;;;;5001972;28;20191;-84
2022/04/21 13:57:09;;;;;;;3.10;1.97;;;23.30;50.80;;;;;;5022850;28;20431;-84
2022/04/21 13:59:37;;;;;;;2.57;1.43;;;23.30;50.80;;;;;;5017192;28;20491;-83